createdAt,value
2023-10-09T00:01:14.571Z,13.82
2023-10-09T00:03:42.558Z,14.88
2023-10-09T00:06:09.205Z,16.05
2023-10-09T00:08:38.319Z,15.35
2023-10-09T00:11:17.716Z,14.77
2023-10-09T00:13:58.490Z,14.43
2023-10-09T00:16:35.787Z,15.15
2023-10-09T00:19:15.557Z,16.73
2023-10-09T00:21:42.711Z,15.85
2023-10-09T00:24:14.713Z,11.88
2023-10-09T00:26:49.077Z,12.98
2023-10-09T00:29:17.829Z,15.00
2023-10-09T00:31:51.285Z,16.13
2023-10-09T00:34:21.046Z,12.77
2023-10-09T00:36:53.413Z,15.82
2023-10-09T00:39:55.237Z,10.98
2023-10-09T00:42:36.657Z,17.33
2023-10-09T00:45:06.396Z,15.60
2023-10-09T00:47:35.811Z,13.70
2023-10-09T00:50:22.256Z,12.25
2023-10-09T00:52:51.994Z,12.40
2023-10-09T00:55:22.607Z,14.90
2023-10-09T00:57:51.551Z,10.00
2023-10-09T01:00:34.321Z,10.73
2023-10-09T01:03:14.354Z,13.95
2023-10-09T01:05:52.354Z,9.05
2023-10-09T01:08:45.194Z,16.15
2023-10-09T01:11:11.682Z,9.40
2023-10-09T01:13:47.775Z,11.05
2023-10-09T01:16:17.226Z,10.90
2023-10-09T01:19:25.576Z,16.90
2023-10-09T01:21:52.643Z,12.13
2023-10-09T01:24:21.189Z,11.35
2023-10-09T01:26:50.971Z,10.40
2023-10-09T01:29:20.365Z,9.93
2023-10-09T01:31:57.453Z,10.70
2023-10-09T01:34:42.777Z,8.98
2023-10-09T01:37:18.893Z,12.02
2023-10-09T01:39:46.625Z,9.68
2023-10-09T01:42:24.584Z,10.95
2023-10-09T01:44:51.931Z,14.15
2023-10-09T01:47:19.962Z,11.60
2023-10-09T01:49:50.352Z,11.93
2023-10-09T01:52:17.662Z,9.60
2023-10-09T01:54:49.983Z,12.95
2023-10-09T01:57:23.127Z,16.73
2023-10-09T01:59:54.788Z,9.00
2023-10-09T02:02:28.753Z,13.93
2023-10-09T02:05:06.863Z,12.05
2023-10-09T02:07:41.907Z,9.73
2023-10-09T02:10:22.542Z,9.50
2023-10-09T02:12:59.185Z,10.73
2023-10-09T02:15:45.506Z,14.15
2023-10-09T02:18:24.242Z,13.50
2023-10-09T02:20:57.157Z,11.25
2023-10-09T02:23:31.897Z,10.40
2023-10-09T02:26:05.921Z,11.77
2023-10-09T02:28:34.061Z,10.48
2023-10-09T02:31:22.959Z,9.55
2023-10-09T02:33:54.633Z,11.07
2023-10-09T02:36:21.238Z,9.15
2023-10-09T02:38:49.907Z,11.75
2023-10-09T02:41:17.046Z,10.13
2023-10-09T02:43:51.364Z,14.80
2023-10-09T02:46:30.832Z,13.80
2023-10-09T02:48:58.688Z,9.43
2023-10-09T02:51:28.579Z,13.38
2023-10-09T02:53:59.238Z,10.52
2023-10-09T02:56:36.962Z,9.68
2023-10-09T02:59:07.512Z,13.68
2023-10-09T03:01:35.783Z,12.48
2023-10-09T03:04:03.669Z,13.32
2023-10-09T03:06:33.370Z,12.80
2023-10-09T03:08:59.887Z,11.00
2023-10-09T03:11:27.795Z,10.43
2023-10-09T03:13:54.523Z,10.77
2023-10-09T03:16:22.588Z,10.00
2023-10-09T03:18:53.655Z,11.60
2023-10-09T03:21:20.768Z,12.30
2023-10-09T03:23:51.340Z,12.85
2023-10-09T03:26:22.065Z,8.93
2023-10-09T03:28:49.582Z,11.93
2023-10-09T03:31:16.304Z,13.90
2023-10-09T03:33:42.816Z,11.85
2023-10-09T03:36:18.018Z,8.98
2023-10-09T03:38:46.589Z,11.38
2023-10-09T03:41:17.393Z,11.05
2023-10-09T03:43:44.319Z,8.40
2023-10-09T03:46:23.706Z,9.27
2023-10-09T03:48:50.982Z,10.68
2023-10-09T03:51:23.501Z,10.55
2023-10-09T03:53:50.769Z,11.13
2023-10-09T03:56:18.643Z,9.55
2023-10-09T03:58:50.010Z,10.13
2023-10-09T04:01:29.554Z,14.57
2023-10-09T04:03:56.805Z,10.85
2023-10-09T04:06:29.856Z,11.40
2023-10-09T04:08:56.258Z,9.50
2023-10-09T04:11:25.852Z,12.48
2023-10-09T04:13:53.903Z,11.75
2023-10-09T04:16:32.937Z,12.63
2023-10-09T04:19:07.008Z,10.95
2023-10-09T04:21:36.642Z,10.07
2023-10-09T04:24:13.339Z,9.73
2023-10-09T04:26:45.500Z,12.43
2023-10-09T04:29:19.456Z,10.45
2023-10-09T04:31:52.736Z,16.05
2023-10-09T04:34:49.395Z,11.27
2023-10-09T04:37:37.915Z,10.32
2023-10-09T04:40:16.029Z,11.65
2023-10-09T04:42:59.128Z,16.38
2023-10-09T04:45:44.388Z,10.27
2023-10-09T04:48:11.475Z,10.27
2023-10-09T04:50:46.590Z,8.82
2023-10-09T04:53:18.827Z,12.15
2023-10-09T04:55:54.954Z,11.60
2023-10-09T04:58:25.590Z,12.55
2023-10-09T05:01:05.731Z,13.70
2023-10-09T05:03:55.009Z,14.88
2023-10-09T05:06:22.228Z,17.08
2023-10-09T05:08:49.900Z,11.52
2023-10-09T05:11:35.485Z,13.77
2023-10-09T05:14:14.493Z,10.35
2023-10-09T05:16:55.229Z,12.55
2023-10-09T05:19:42.909Z,13.93
2023-10-09T05:22:17.777Z,12.70
2023-10-09T05:24:46.367Z,13.15
2023-10-09T05:27:19.011Z,16.83
2023-10-09T05:30:14.231Z,14.43
2023-10-09T05:32:49.478Z,16.00
2023-10-09T05:35:21.379Z,12.68
2023-10-09T05:37:47.938Z,10.93
2023-10-09T05:40:17.266Z,11.60
2023-10-09T05:42:44.755Z,12.13
2023-10-09T05:45:18.567Z,17.08
2023-10-09T05:47:55.770Z,16.00
2023-10-09T05:50:25.456Z,14.00
2023-10-09T05:52:52.237Z,14.18
2023-10-09T05:55:41.553Z,11.38
2023-10-09T05:58:26.376Z,11.07
2023-10-09T06:01:11.296Z,10.57
2023-10-09T06:03:49.833Z,13.50
2023-10-09T06:06:34.081Z,11.80
2023-10-09T06:09:17.104Z,14.93
2023-10-09T06:11:51.356Z,10.23
2023-10-09T06:14:46.982Z,12.18
2023-10-09T06:17:39.513Z,9.35
2023-10-09T06:20:26.283Z,14.40
2023-10-09T06:22:58.688Z,12.88
2023-10-09T06:25:33.891Z,14.75
2023-10-09T06:28:00.801Z,14.80
2023-10-09T06:30:28.637Z,16.85
2023-10-09T06:33:21.391Z,12.80
2023-10-09T06:35:56.626Z,13.52
2023-10-09T06:38:24.142Z,14.63
2023-10-09T06:40:53.987Z,11.90
2023-10-09T06:43:23.905Z,9.23
2023-10-09T06:46:13.078Z,18.15
2023-10-09T06:48:39.569Z,15.65
2023-10-09T06:51:38.982Z,13.63
2023-10-09T06:54:08.458Z,8.00
2023-10-09T06:56:34.937Z,8.88
2023-10-09T06:59:22.569Z,9.30
2023-10-09T07:02:10.077Z,9.77
2023-10-09T07:04:36.805Z,11.10
2023-10-09T07:07:08.510Z,14.57
2023-10-09T07:09:44.214Z,21.30
2023-10-09T07:12:14.377Z,17.10
2023-10-09T07:14:40.887Z,18.38
2023-10-09T07:17:29.517Z,13.82
2023-10-09T07:19:56.034Z,14.20
2023-10-09T07:22:22.771Z,22.30
2023-10-09T07:24:58.862Z,24.77
2023-10-09T07:27:44.732Z,22.70
2023-10-09T07:30:30.150Z,15.32
2023-10-09T07:33:05.060Z,14.13
2023-10-09T07:35:43.529Z,25.23
2023-10-09T07:38:10.560Z,17.65
2023-10-09T07:40:58.861Z,25.40
2023-10-09T07:43:32.562Z,25.50
2023-10-09T07:48:28.752Z,20.77
2023-10-09T07:50:59.017Z,23.40
2023-10-09T07:53:30.132Z,20.23
2023-10-09T07:55:59.588Z,16.40
2023-10-09T07:58:28.789Z,20.90
2023-10-09T08:01:07.670Z,21.83
2023-10-09T08:03:35.980Z,25.77
2023-10-09T08:06:28.395Z,16.42
2023-10-09T08:09:19.799Z,21.30
2023-10-09T08:12:15.136Z,20.58
2023-10-09T08:14:46.489Z,20.90
2023-10-09T08:17:16.518Z,17.15
2023-10-09T08:19:55.700Z,18.58
2023-10-09T08:22:25.693Z,15.52
2023-10-09T08:24:58.289Z,20.00
2023-10-09T08:27:34.104Z,22.33
2023-10-09T08:30:19.655Z,18.45
2023-10-09T08:35:34.309Z,19.80
2023-10-09T08:38:04.721Z,16.73
2023-10-09T08:40:38.328Z,18.17
2023-10-09T08:45:32.614Z,15.25
2023-10-09T08:48:02.040Z,20.98
2023-10-09T08:50:29.909Z,20.48
2023-10-09T08:52:56.960Z,25.67
2023-10-09T08:55:23.436Z,18.58
2023-10-09T08:57:53.587Z,19.00
2023-10-09T09:00:25.056Z,21.95
2023-10-09T09:02:51.715Z,17.40
2023-10-09T09:05:19.424Z,18.58
2023-10-09T09:07:45.858Z,12.35
2023-10-09T09:10:22.631Z,29.40
2023-10-09T09:12:54.595Z,22.77
2023-10-09T09:15:21.527Z,19.50
2023-10-09T09:17:50.783Z,25.73
2023-10-09T09:20:24.556Z,23.52
2023-10-09T09:25:18.484Z,19.77
2023-10-09T09:27:51.198Z,21.17
2023-10-09T09:30:25.173Z,17.70
2023-10-09T09:33:11.598Z,21.63
2023-10-09T09:35:37.952Z,20.48
2023-10-09T09:38:07.788Z,26.05
2023-10-09T09:40:42.514Z,20.23
2023-10-09T09:43:22.586Z,22.80
2023-10-09T09:45:50.715Z,21.48
2023-10-09T09:48:18.076Z,18.52
2023-10-09T09:50:46.509Z,18.10
2023-10-09T09:53:20.027Z,25.58
2023-10-09T09:55:57.340Z,15.80
2023-10-09T09:58:45.472Z,16.40
2023-10-09T10:01:25.986Z,24.52
2023-10-09T10:03:57.332Z,26.35
2023-10-09T10:06:27.552Z,22.45
2023-10-09T10:08:56.083Z,22.27
2023-10-09T10:11:41.876Z,27.67
2023-10-09T10:14:21.088Z,25.30
2023-10-09T10:17:19.871Z,20.52
2023-10-09T10:20:05.940Z,17.50
2023-10-09T10:22:33.971Z,20.67
2023-10-09T10:25:03.965Z,23.55
2023-10-09T10:27:34.013Z,23.85
2023-10-09T10:30:12.838Z,23.90
2023-10-09T10:33:15.237Z,25.42
2023-10-09T10:35:44.490Z,21.60
2023-10-09T10:38:33.786Z,15.80
2023-10-09T10:41:13.257Z,19.85
2023-10-09T10:43:53.735Z,19.42
2023-10-09T10:46:39.175Z,20.27
2023-10-09T10:49:16.913Z,22.38
2023-10-09T10:51:49.290Z,25.60
2023-10-09T10:54:34.850Z,25.27
2023-10-09T10:57:04.617Z,19.30
2023-10-09T10:59:34.385Z,22.88
2023-10-09T11:02:03.954Z,18.70
2023-10-09T11:04:33.775Z,23.23
2023-10-09T11:07:19.491Z,22.73
2023-10-09T11:10:08.106Z,27.45
2023-10-09T11:12:46.665Z,24.67
2023-10-09T11:15:22.617Z,24.35
2023-10-09T11:18:06.249Z,21.23
2023-10-09T11:20:34.730Z,18.45
2023-10-09T11:23:19.311Z,18.75
2023-10-09T11:25:52.225Z,23.48
2023-10-09T11:28:31.028Z,19.17
2023-10-09T11:31:07.774Z,24.02
2023-10-09T11:33:46.621Z,24.48
2023-10-09T11:36:13.024Z,21.48
2023-10-09T11:38:39.729Z,26.67
2023-10-09T11:41:24.251Z,14.25
2023-10-09T11:43:55.136Z,20.05
2023-10-09T11:46:38.140Z,28.25
2023-10-09T11:49:23.349Z,20.67
2023-10-09T11:52:08.736Z,19.27
2023-10-09T11:54:36.195Z,22.30
2023-10-09T11:57:05.245Z,23.00
2023-10-09T11:59:38.687Z,21.70
2023-10-09T12:04:32.519Z,23.35
2023-10-09T12:07:07.492Z,28.02
2023-10-09T12:09:35.600Z,25.35
2023-10-09T12:12:05.638Z,19.85
2023-10-09T12:14:36.009Z,22.77
2023-10-09T12:17:08.444Z,26.02
2023-10-09T12:19:35.458Z,28.13
2023-10-09T12:22:02.471Z,32.67
2023-10-09T12:24:30.255Z,18.83
2023-10-09T12:26:56.887Z,30.00
2023-10-09T12:29:24.661Z,18.60
2023-10-09T12:31:59.204Z,21.05
2023-10-09T12:34:28.612Z,20.70
2023-10-09T12:36:55.314Z,19.92
2023-10-09T12:39:22.636Z,28.80
2023-10-09T12:41:49.507Z,23.05
2023-10-09T12:44:16.373Z,31.33
2023-10-09T12:46:43.839Z,20.52
2023-10-09T12:49:11.593Z,20.08
2023-10-09T12:51:38.042Z,29.17
2023-10-09T12:54:04.448Z,31.88
2023-10-09T12:56:34.041Z,31.13
2023-10-09T12:59:05.919Z,24.52
2023-10-09T13:01:44.015Z,23.13
2023-10-09T13:04:12.771Z,25.23
2023-10-09T13:06:45.183Z,24.92
2023-10-09T13:09:36.791Z,24.30
2023-10-09T13:12:03.534Z,18.10
2023-10-09T13:14:35.046Z,26.42
2023-10-09T13:17:01.472Z,29.63
2023-10-09T13:19:28.000Z,18.27
2023-10-09T13:21:54.466Z,19.13
2023-10-09T13:24:25.568Z,24.23
2023-10-09T13:26:59.242Z,22.23
2023-10-09T13:31:59.516Z,28.33
2023-10-09T13:34:29.256Z,27.02
2023-10-09T13:36:57.692Z,27.80
2023-10-09T13:39:24.282Z,30.63
2023-10-09T13:42:01.471Z,23.42
2023-10-09T13:44:29.006Z,23.55
2023-10-09T13:46:59.922Z,33.42
2023-10-09T13:49:32.941Z,26.55
2023-10-09T13:52:03.127Z,22.33
2023-10-09T13:54:33.077Z,24.90
2023-10-09T13:56:59.997Z,25.02
2023-10-09T13:59:26.708Z,33.13
2023-10-09T14:01:56.373Z,32.35
2023-10-09T14:04:25.954Z,24.50
2023-10-09T14:06:58.518Z,32.17
2023-10-09T14:09:46.382Z,24.90
2023-10-09T14:12:15.359Z,20.70
2023-10-09T14:14:48.375Z,25.67
2023-10-09T14:17:26.168Z,25.00
2023-10-09T14:19:53.357Z,27.63
2023-10-09T14:22:25.411Z,24.25
2023-10-09T14:24:58.994Z,26.45
2023-10-09T14:30:00.011Z,30.25
2023-10-09T14:32:30.061Z,26.38
2023-10-09T14:35:02.309Z,21.13
2023-10-09T14:37:29.257Z,24.10
2023-10-09T14:39:56.973Z,15.27
2023-10-09T14:42:28.884Z,27.25
2023-10-09T14:44:56.694Z,28.23
2023-10-09T14:47:23.450Z,29.17
2023-10-09T14:49:49.875Z,22.58
2023-10-09T14:52:20.172Z,19.15
2023-10-09T14:54:47.517Z,20.90
2023-10-09T14:57:14.328Z,21.35
2023-10-09T14:59:41.067Z,23.27
2023-10-09T15:02:08.393Z,25.23
2023-10-09T15:04:38.105Z,31.92
2023-10-09T15:07:08.439Z,21.65
2023-10-09T15:09:37.320Z,36.95
2023-10-09T15:12:07.288Z,27.08
2023-10-09T15:14:33.814Z,24.92
2023-10-09T15:17:00.340Z,31.30
2023-10-09T15:19:30.653Z,24.08
2023-10-09T15:21:59.688Z,24.77
2023-10-09T15:24:28.533Z,33.90
2023-10-09T15:26:58.785Z,25.13
2023-10-09T15:29:33.685Z,21.60
2023-10-09T15:32:15.870Z,23.55
2023-10-09T15:34:42.396Z,21.02
2023-10-09T15:37:08.886Z,33.25
2023-10-09T15:39:35.737Z,26.33
2023-10-09T15:42:05.417Z,28.98
2023-10-09T15:44:34.856Z,21.85
2023-10-09T15:47:01.603Z,22.35
2023-10-09T15:49:28.398Z,23.30
2023-10-09T15:51:54.801Z,23.63
2023-10-09T15:54:21.282Z,21.30
2023-10-09T15:56:56.031Z,23.30
2023-10-09T15:59:33.811Z,28.10
2023-10-09T16:02:00.275Z,27.40
2023-10-09T16:04:27.055Z,27.90
2023-10-09T16:06:56.461Z,21.98
2023-10-09T16:09:22.887Z,13.85
2023-10-09T16:11:49.261Z,20.27
2023-10-09T16:14:16.793Z,18.13
2023-10-09T16:16:45.032Z,23.85
2023-10-09T16:19:16.522Z,25.88
2023-10-09T16:21:43.880Z,19.08
2023-10-09T16:24:11.188Z,21.73
2023-10-09T16:26:46.513Z,26.63
2023-10-09T16:29:13.031Z,26.65
2023-10-09T16:31:41.789Z,24.90
2023-10-09T16:34:08.639Z,25.13
2023-10-09T16:36:36.239Z,28.15
2023-10-09T16:39:04.009Z,24.20
2023-10-09T16:41:41.126Z,30.25
2023-10-09T16:44:11.109Z,25.42
2023-10-09T16:46:40.923Z,23.98
2023-10-09T16:49:12.607Z,22.95
2023-10-09T16:51:43.957Z,23.55
2023-10-09T16:54:16.044Z,19.90
2023-10-09T16:56:43.752Z,32.17
2023-10-09T16:59:15.808Z,24.58
2023-10-09T17:01:43.028Z,28.10
2023-10-09T17:04:17.847Z,26.15
2023-10-09T17:06:45.380Z,26.33
2023-10-09T17:09:13.469Z,36.67
2023-10-09T17:11:42.864Z,32.38
2023-10-09T17:14:14.021Z,26.48
2023-10-09T17:16:46.350Z,23.65
2023-10-09T17:19:15.273Z,25.38
2023-10-09T17:21:42.163Z,21.88
2023-10-09T17:24:12.047Z,20.98
2023-10-09T17:26:46.662Z,24.80
2023-10-09T17:29:14.758Z,24.92
2023-10-09T17:31:41.228Z,18.10
2023-10-09T17:34:10.470Z,22.63
2023-10-09T17:36:36.876Z,23.55
2023-10-09T17:39:05.651Z,21.48
2023-10-09T17:41:35.802Z,29.17
2023-10-09T17:44:06.104Z,21.95
2023-10-09T17:46:32.732Z,21.10
2023-10-09T17:48:59.270Z,29.80
2023-10-09T17:51:25.612Z,22.92
2023-10-09T17:53:54.605Z,20.88
2023-10-09T17:56:22.944Z,23.10
2023-10-09T17:58:52.774Z,25.80
2023-10-09T18:01:20.027Z,26.67
2023-10-09T18:03:46.715Z,22.92
2023-10-09T18:06:17.820Z,17.17
2023-10-09T18:08:44.557Z,24.83
2023-10-09T18:11:12.884Z,24.83
2023-10-09T18:13:39.342Z,25.75
2023-10-09T18:16:12.745Z,24.17
2023-10-09T18:18:40.936Z,22.35
2023-10-09T18:21:08.694Z,22.63
2023-10-09T18:23:36.755Z,26.20
2023-10-09T18:26:04.335Z,21.63
2023-10-09T18:28:30.880Z,20.50
2023-10-09T18:30:59.816Z,23.02
2023-10-09T18:33:26.603Z,22.90
2023-10-09T18:35:53.045Z,22.95
2023-10-09T18:38:19.521Z,28.08
2023-10-09T18:40:48.360Z,20.30
2023-10-09T18:43:15.382Z,22.80
2023-10-09T18:45:42.248Z,24.42
2023-10-09T18:48:12.232Z,20.15
2023-10-09T18:50:42.791Z,21.92
2023-10-09T18:53:14.249Z,19.98
2023-10-09T18:55:43.363Z,18.63
2023-10-09T18:58:10.853Z,19.27
2023-10-09T19:00:42.206Z,20.88
2023-10-09T19:03:11.775Z,20.85
2023-10-09T19:05:43.089Z,23.08
2023-10-09T19:08:10.364Z,19.17
2023-10-09T19:10:38.226Z,25.75
2023-10-09T19:13:08.060Z,30.90
2023-10-09T19:15:34.474Z,40.17
2023-10-09T19:18:01.918Z,33.85
2023-10-09T19:20:30.450Z,24.50
2023-10-09T19:22:56.942Z,29.35
2023-10-09T19:25:28.472Z,18.67
2023-10-09T19:27:56.034Z,21.73
2023-10-09T19:30:22.831Z,23.13
2023-10-09T19:32:49.411Z,23.98
2023-10-09T19:35:19.462Z,20.80
2023-10-09T19:37:49.198Z,22.70
2023-10-09T19:40:15.725Z,28.75
2023-10-09T19:42:42.174Z,19.45
2023-10-09T19:45:11.426Z,20.42
2023-10-09T19:47:40.986Z,21.13
2023-10-09T19:50:15.561Z,24.67
2023-10-09T19:52:42.600Z,26.10
2023-10-09T19:55:09.938Z,22.65
2023-10-09T19:57:36.312Z,27.80
2023-10-09T20:00:07.462Z,28.65
2023-10-09T20:02:35.797Z,26.13
2023-10-09T20:05:04.998Z,23.00
2023-10-09T20:07:31.383Z,22.65
2023-10-09T20:10:02.615Z,15.75
2023-10-09T20:12:30.952Z,21.77
2023-10-09T20:15:00.033Z,21.90
2023-10-09T20:17:26.501Z,21.77
2023-10-09T20:19:54.272Z,18.15
2023-10-09T20:22:21.222Z,26.50
2023-10-09T20:24:47.787Z,27.20
2023-10-09T20:27:19.738Z,24.95
2023-10-09T20:29:47.728Z,27.67
2023-10-09T20:32:17.405Z,26.95
2023-10-09T20:34:46.652Z,26.20
2023-10-09T20:37:13.859Z,26.42
2023-10-09T20:39:42.755Z,22.35
2023-10-09T20:42:10.315Z,37.00
2023-10-09T20:44:36.783Z,24.23
2023-10-09T20:47:04.298Z,19.38
2023-10-09T20:49:34.111Z,25.48
2023-10-09T20:52:02.977Z,31.20
2023-10-09T20:54:32.114Z,19.73
2023-10-09T20:57:01.311Z,20.20
2023-10-09T20:59:27.745Z,24.25
2023-10-09T21:01:56.787Z,17.83
2023-10-09T21:04:23.348Z,21.60
2023-10-09T21:06:52.220Z,21.17
2023-10-09T21:09:21.114Z,19.33
2023-10-09T21:11:48.158Z,22.77
2023-10-09T21:14:14.601Z,20.33
2023-10-09T21:16:41.209Z,22.52
2023-10-09T21:19:09.949Z,16.30
2023-10-09T21:21:37.766Z,20.35
2023-10-09T21:24:09.009Z,19.77
2023-10-09T21:26:38.274Z,14.05
2023-10-09T21:29:04.750Z,15.18
2023-10-09T21:31:31.192Z,18.05
2023-10-09T21:34:00.500Z,24.08
2023-10-09T21:36:27.105Z,17.38
2023-10-09T21:38:53.485Z,24.80
2023-10-09T21:41:22.683Z,22.63
2023-10-09T21:43:55.630Z,25.50
2023-10-09T21:46:26.204Z,25.25
2023-10-09T21:48:52.955Z,20.15
2023-10-09T21:51:19.398Z,21.77
2023-10-09T21:53:48.300Z,23.45
2023-10-09T21:56:15.577Z,23.50
2023-10-09T21:58:43.133Z,21.30
2023-10-09T22:01:10.694Z,20.98
2023-10-09T22:03:37.615Z,21.27
2023-10-09T22:06:06.573Z,16.20
2023-10-09T22:08:35.479Z,27.40
2023-10-09T22:11:02.907Z,20.52
2023-10-09T22:13:29.616Z,21.52
2023-10-09T22:15:56.066Z,18.48
2023-10-09T22:18:22.935Z,23.25
2023-10-09T22:20:54.812Z,19.63
2023-10-09T22:23:32.106Z,16.63
2023-10-09T22:26:05.178Z,17.90
2023-10-09T22:28:34.271Z,18.05
2023-10-09T22:31:11.597Z,27.38
2023-10-09T22:33:50.652Z,20.23
2023-10-09T22:36:31.260Z,19.13
2023-10-09T22:39:06.328Z,23.02
2023-10-09T22:41:35.610Z,23.83
2023-10-09T22:44:11.766Z,19.52
2023-10-09T22:46:41.046Z,15.00
2023-10-09T22:49:14.919Z,18.15
2023-10-09T22:51:52.060Z,19.77
2023-10-09T22:54:24.343Z,17.30
2023-10-09T22:56:54.303Z,19.73
2023-10-09T22:59:28.258Z,18.08
2023-10-09T23:02:04.058Z,20.35
2023-10-09T23:04:39.360Z,25.60
2023-10-09T23:07:16.363Z,13.65
2023-10-09T23:09:55.489Z,19.25
2023-10-09T23:12:26.312Z,18.83
2023-10-09T23:14:55.503Z,20.13
2023-10-09T23:17:41.972Z,19.25
2023-10-09T23:20:16.211Z,23.05
2023-10-09T23:22:53.130Z,18.85
2023-10-09T23:25:30.840Z,24.42
2023-10-09T23:28:17.047Z,17.77
2023-10-09T23:30:46.010Z,16.70
2023-10-09T23:33:23.987Z,17.05
2023-10-09T23:36:05.268Z,16.67
2023-10-09T23:38:31.769Z,17.77
2023-10-09T23:40:58.867Z,14.30
2023-10-09T23:43:31.275Z,20.48
2023-10-09T23:45:59.270Z,14.80
2023-10-09T23:48:28.226Z,16.73
2023-10-09T23:50:56.928Z,17.80
2023-10-09T23:53:29.879Z,16.75
2023-10-09T23:56:04.327Z,16.77
2023-10-09T23:58:36.363Z,21.35
